createdAt,value
2023-04-05T00:01:08.327Z,2.23
2023-04-05T00:05:11.748Z,2.40
2023-04-05T00:09:13.643Z,2.40
2023-04-05T00:13:15.517Z,2.40
2023-04-05T00:17:18.068Z,2.70
2023-04-05T00:21:23.029Z,2.23
2023-04-05T00:25:24.784Z,2.60
2023-04-05T00:29:26.566Z,2.67
2023-04-05T00:33:28.316Z,2.80
2023-04-05T00:37:31.863Z,2.27
2023-04-05T00:41:33.664Z,2.60
2023-04-05T00:45:35.444Z,2.33
2023-04-05T00:49:37.318Z,2.50
2023-04-05T00:53:39.184Z,2.30
2023-04-05T00:57:41.277Z,2.27
2023-04-05T01:01:44.534Z,2.23
2023-04-05T01:06:10.950Z,2.50
2023-04-05T01:10:14.550Z,2.57
2023-04-05T01:14:16.248Z,2.13
2023-04-05T01:18:18.476Z,2.20
2023-04-05T01:22:38.077Z,2.13
2023-04-05T01:26:47.149Z,3.37
2023-04-05T01:30:54.441Z,3.20
2023-04-05T01:35:18.104Z,3.70
2023-04-05T01:39:20.649Z,3.20
2023-04-05T01:43:22.412Z,3.40
2023-04-05T01:47:24.419Z,3.23
2023-04-05T01:51:26.536Z,3.70
2023-04-05T01:55:28.227Z,3.00
2023-04-05T01:59:30.081Z,3.10
2023-04-05T02:03:31.912Z,3.00
2023-04-05T02:07:33.899Z,2.70
2023-04-05T02:11:35.873Z,2.80
2023-04-05T02:15:37.796Z,3.23
2023-04-05T02:19:42.368Z,3.20
2023-04-05T02:23:44.207Z,3.00
2023-04-05T02:27:46.168Z,2.70
2023-04-05T02:31:47.896Z,3.13
2023-04-05T02:35:50.710Z,3.00
2023-04-05T02:39:53.111Z,3.07
2023-04-05T02:43:54.893Z,3.03
2023-04-05T02:47:56.659Z,2.93
2023-04-05T02:52:17.015Z,2.83
2023-04-05T02:56:19.248Z,2.53
2023-04-05T03:00:22.414Z,3.23
2023-04-05T03:04:26.839Z,2.93
2023-04-05T03:08:28.870Z,2.87
2023-04-05T03:12:30.721Z,2.87
2023-04-05T03:16:32.535Z,2.73
2023-04-05T03:20:41.503Z,2.83
2023-04-05T03:24:43.462Z,2.50
2023-04-05T03:28:45.348Z,2.30
2023-04-05T03:32:47.590Z,2.97
2023-04-05T03:36:49.890Z,2.40
2023-04-05T03:40:51.661Z,3.00
2023-04-05T03:44:54.207Z,2.53
2023-04-05T03:48:56.752Z,2.93
2023-04-05T03:53:01.632Z,2.57
2023-04-05T03:57:03.449Z,2.43
2023-04-05T04:01:06.786Z,2.57
2023-04-05T04:05:08.867Z,2.33
2023-04-05T04:09:11.196Z,2.30
2023-04-05T04:13:13.309Z,2.67
2023-04-05T04:17:29.092Z,3.13
2023-04-05T04:21:32.717Z,2.83
2023-04-05T04:25:34.510Z,2.90
2023-04-05T04:29:39.103Z,3.47
2023-04-05T04:33:43.684Z,3.30
2023-04-05T04:37:53.343Z,4.03
2023-04-05T04:41:56.035Z,3.73
2023-04-05T04:46:07.529Z,3.60
2023-04-05T04:50:10.426Z,3.70
2023-04-05T04:54:13.459Z,3.50
2023-04-05T04:58:18.097Z,3.60
2023-04-05T05:02:24.495Z,3.80
2023-04-05T05:06:27.399Z,4.37
2023-04-05T05:10:29.263Z,3.67
2023-04-05T05:14:31.183Z,3.93
2023-04-05T05:18:33.013Z,4.53
2023-04-05T05:22:34.854Z,4.43
2023-04-05T05:26:38.171Z,4.37
2023-04-05T05:30:40.269Z,4.53
2023-04-05T05:34:45.052Z,4.63
2023-04-05T05:38:47.726Z,4.87
2023-04-05T05:42:49.915Z,5.07
2023-04-05T05:46:51.604Z,5.00
2023-04-05T05:50:54.569Z,4.33
2023-04-05T05:54:56.255Z,4.37
2023-04-05T05:58:59.751Z,5.13
2023-04-05T06:03:01.784Z,4.40
2023-04-05T06:07:06.284Z,4.50
2023-04-05T06:11:08.129Z,4.87
2023-04-05T06:15:10.433Z,4.40
2023-04-05T06:19:12.375Z,4.20
2023-04-05T06:23:18.829Z,4.10
2023-04-05T06:27:20.622Z,4.30
2023-04-05T06:31:32.871Z,4.00
2023-04-05T06:35:34.859Z,4.40
2023-04-05T06:39:37.097Z,4.60
2023-04-05T06:43:38.967Z,4.27
2023-04-05T06:47:41.166Z,4.43
2023-04-05T06:51:42.947Z,4.47
2023-04-05T06:55:50.890Z,4.40
2023-04-05T06:59:53.425Z,4.47
2023-04-05T07:03:55.737Z,4.50
2023-04-05T07:07:57.582Z,4.63
2023-04-05T07:12:00.126Z,4.77
2023-04-05T07:16:02.847Z,4.37
2023-04-05T07:20:08.322Z,4.63
2023-04-05T07:24:10.053Z,4.87
2023-04-05T07:28:11.783Z,5.30
2023-04-05T07:32:16.285Z,4.63
2023-04-05T07:36:18.089Z,4.70
2023-04-05T07:40:20.039Z,4.13
2023-04-05T07:44:24.973Z,3.80
2023-04-05T07:48:26.771Z,4.37
2023-04-05T07:52:28.499Z,4.23
2023-04-05T07:56:30.907Z,3.80
2023-04-05T08:00:32.727Z,3.90
2023-04-05T08:04:34.464Z,3.80
2023-04-05T08:08:37.571Z,3.40
2023-04-05T08:12:39.637Z,3.40
2023-04-05T08:16:41.386Z,3.43
2023-04-05T08:20:43.506Z,3.40
2023-04-05T08:24:45.824Z,2.83
2023-04-05T08:28:47.565Z,3.50
2023-04-05T08:32:49.597Z,3.47
2023-04-05T08:36:51.358Z,3.20
2023-04-05T08:40:53.076Z,3.47
2023-04-05T08:44:55.440Z,3.50
2023-04-05T08:48:58.985Z,3.53
2023-04-05T08:53:03.954Z,3.20
2023-04-05T08:57:06.114Z,3.40
2023-04-05T09:01:07.987Z,3.67
2023-04-05T09:05:10.099Z,3.27
2023-04-05T09:09:11.874Z,3.23
2023-04-05T09:13:13.807Z,3.20
2023-04-05T09:17:17.921Z,2.70
2023-04-05T09:21:23.542Z,2.60
2023-04-05T09:25:43.544Z,2.90
2023-04-05T09:29:48.792Z,2.43
2023-04-05T09:33:50.835Z,2.73
2023-04-05T09:37:55.990Z,2.63
2023-04-05T09:42:17.260Z,2.60
2023-04-05T09:46:35.615Z,2.57
2023-04-05T09:50:38.744Z,3.00
2023-04-05T09:54:43.765Z,3.13
2023-04-05T09:58:45.688Z,3.23
2023-04-05T10:02:48.082Z,2.70
2023-04-05T10:06:50.039Z,2.67
2023-04-05T10:10:52.064Z,2.83
2023-04-05T10:14:54.640Z,2.70
2023-04-05T10:18:56.493Z,2.53
2023-04-05T10:23:02.312Z,2.10
2023-04-05T10:27:31.518Z,2.30
2023-04-05T10:31:56.210Z,2.60
2023-04-05T10:36:18.167Z,2.70
2023-04-05T10:40:24.372Z,2.70
2023-04-05T10:44:27.069Z,2.40
2023-04-05T10:48:41.992Z,2.50
2023-04-05T10:52:44.238Z,2.53
2023-04-05T10:56:48.303Z,2.70
2023-04-05T11:00:50.594Z,2.80
2023-04-05T11:04:56.879Z,2.80
2023-04-05T11:09:13.076Z,2.70
2023-04-05T11:13:14.907Z,2.00
2023-04-05T11:17:27.240Z,2.23
2023-04-05T11:21:29.258Z,2.27
2023-04-05T11:25:31.377Z,2.37
2023-04-05T11:29:52.204Z,1.87
2023-04-05T11:33:59.534Z,1.90
2023-04-05T11:38:01.518Z,2.47
2023-04-05T11:42:04.920Z,2.50
2023-04-05T11:46:11.734Z,2.20
2023-04-05T11:50:13.567Z,2.20
2023-04-05T11:54:33.287Z,2.17
2023-04-05T11:58:34.986Z,2.60
2023-04-05T12:02:37.048Z,2.47
2023-04-05T12:06:38.832Z,2.30
2023-04-05T12:10:40.833Z,2.10
2023-04-05T12:14:43.869Z,2.53
2023-04-05T12:18:45.769Z,2.33
2023-04-05T12:22:53.191Z,3.77
2023-04-05T12:26:57.939Z,2.37
2023-04-05T12:31:02.197Z,2.20
2023-04-05T12:35:07.912Z,3.27
2023-04-05T12:39:10.217Z,2.30
2023-04-05T12:43:12.867Z,2.40
2023-04-05T12:47:17.698Z,2.57
2023-04-05T12:51:19.513Z,2.30
2023-04-05T12:55:24.025Z,1.70
2023-04-05T12:59:26.121Z,2.10
2023-04-05T13:03:28.316Z,2.10
2023-04-05T13:07:30.494Z,2.10
2023-04-05T13:11:32.407Z,2.10
2023-04-05T13:15:35.637Z,1.73
2023-04-05T13:19:37.510Z,2.20
2023-04-05T13:23:39.971Z,2.37
2023-04-05T13:27:45.652Z,2.60
2023-04-05T13:31:47.901Z,2.23
2023-04-05T13:35:50.130Z,2.33
2023-04-05T13:39:52.045Z,2.53
2023-04-05T13:43:54.048Z,3.00
2023-04-05T13:47:56.124Z,2.47
2023-04-05T13:51:58.025Z,2.90
2023-04-05T13:55:59.910Z,3.00
2023-04-05T14:00:04.898Z,2.50
2023-04-05T14:04:09.324Z,2.67
2023-04-05T14:08:11.136Z,2.73
2023-04-05T14:16:15.914Z,2.20
2023-04-05T14:20:17.839Z,2.03
2023-04-05T14:24:19.769Z,2.00
2023-04-05T14:28:23.944Z,2.07
2023-04-05T14:32:29.010Z,1.90
2023-04-05T14:36:36.087Z,2.00
2023-04-05T14:40:40.817Z,1.90
2023-04-05T14:44:42.968Z,1.97
2023-04-05T14:48:44.921Z,2.30
2023-04-05T14:52:46.820Z,2.03
2023-04-05T14:56:48.849Z,2.40
2023-04-05T15:00:50.805Z,1.77
2023-04-05T15:04:52.673Z,2.03
2023-04-05T15:08:54.706Z,2.17
2023-04-05T15:12:57.006Z,1.97
2023-04-05T15:16:59.003Z,2.30
2023-04-05T15:21:01.717Z,1.70
2023-04-05T15:25:04.197Z,1.80
2023-04-05T15:29:06.458Z,2.10
2023-04-05T15:33:08.347Z,2.00
2023-04-05T15:37:14.548Z,2.10
2023-04-05T15:41:17.353Z,2.50
2023-04-05T15:45:21.092Z,1.90
2023-04-05T15:49:23.251Z,2.47
2023-04-05T15:53:25.431Z,2.30
2023-04-05T15:57:27.249Z,2.63
2023-04-05T16:01:44.676Z,2.30
2023-04-05T16:05:46.550Z,2.43
2023-04-05T16:09:48.413Z,2.30
2023-04-05T16:14:08.770Z,2.30
2023-04-05T16:18:14.491Z,2.60
2023-04-05T16:22:21.887Z,2.40
2023-04-05T16:26:30.482Z,2.40
2023-04-05T16:30:32.630Z,2.40
2023-04-05T16:34:35.927Z,1.93
2023-04-05T16:38:37.710Z,1.93
2023-04-05T16:42:39.680Z,2.63
2023-04-05T16:46:47.345Z,2.73
2023-04-05T16:50:51.766Z,1.90
2023-04-05T16:54:57.553Z,1.43
2023-04-05T16:59:08.069Z,1.80
2023-04-05T17:03:10.714Z,1.70
2023-04-05T17:07:12.980Z,2.23
2023-04-05T17:11:15.087Z,2.13
2023-04-05T17:15:30.278Z,2.53
2023-04-05T17:19:40.768Z,1.90
2023-04-05T17:23:45.596Z,1.93
2023-04-05T17:28:08.882Z,1.80
2023-04-05T17:33:07.794Z,1.77
2023-04-05T17:37:12.899Z,2.23
2023-04-05T17:41:24.746Z,2.43
2023-04-05T17:45:35.628Z,2.40
2023-04-05T17:49:49.384Z,2.07
2023-04-05T17:53:52.546Z,1.93
2023-04-05T17:57:54.517Z,1.70
2023-04-05T18:02:02.121Z,2.27
2023-04-05T18:06:14.130Z,2.10
2023-04-05T18:10:24.734Z,2.90
2023-04-05T18:14:34.177Z,2.40
2023-04-05T18:19:11.514Z,2.87
2023-04-05T18:23:31.268Z,2.80
2023-04-05T18:27:38.345Z,3.30
2023-04-05T18:31:42.988Z,3.37
2023-04-05T18:35:51.670Z,2.90
2023-04-05T18:39:59.873Z,2.57
2023-04-05T18:44:13.291Z,2.50
2023-04-05T18:48:28.054Z,2.43
2023-04-05T18:52:42.116Z,3.17
2023-04-05T18:56:54.445Z,3.70
2023-04-05T19:01:04.425Z,3.40
2023-04-05T19:05:17.010Z,4.10
2023-04-05T19:09:30.079Z,4.03
2023-04-05T19:14:01.170Z,3.33
2023-04-05T19:18:34.908Z,3.57
2023-04-05T19:23:02.022Z,3.67
2023-04-05T19:27:09.566Z,4.03
2023-04-05T19:31:45.707Z,3.40
2023-04-05T19:35:50.851Z,3.90
2023-04-05T19:40:17.681Z,4.60
2023-04-05T19:45:09.245Z,4.10
2023-04-05T19:49:14.273Z,4.27
2023-04-05T19:53:56.941Z,4.20
2023-04-05T19:57:59.690Z,4.40
2023-04-05T20:02:14.955Z,4.17
2023-04-05T20:06:19.550Z,4.17
2023-04-05T20:10:56.487Z,4.53
2023-04-05T20:15:00.960Z,5.57
2023-04-05T20:19:16.449Z,5.60
2023-04-05T20:23:19.880Z,5.20
2023-04-05T20:27:21.684Z,5.60
2023-04-05T20:31:29.272Z,5.63
2023-04-05T20:35:32.647Z,4.83
2023-04-05T20:39:34.468Z,5.47
2023-04-05T20:43:36.351Z,5.13
2023-04-05T20:47:44.494Z,5.20
2023-04-05T20:51:48.652Z,5.17
2023-04-05T20:55:51.115Z,5.37
2023-04-05T20:59:53.044Z,5.63
2023-04-05T21:03:58.007Z,5.60
2023-04-05T21:08:04.136Z,5.67
2023-04-05T21:12:06.838Z,5.60
2023-04-05T21:16:10.020Z,5.43
2023-04-05T21:20:12.162Z,5.40
2023-04-05T21:24:14.002Z,5.20
2023-04-05T21:28:19.155Z,5.80
2023-04-05T21:32:20.998Z,5.77
2023-04-05T21:36:22.921Z,5.37
2023-04-05T21:40:24.797Z,4.93
2023-04-05T21:44:26.531Z,4.57
2023-04-05T21:48:28.980Z,5.03
2023-04-05T21:52:30.985Z,5.50
2023-04-05T21:56:36.290Z,4.80
2023-04-05T22:00:39.535Z,4.77
2023-04-05T22:04:41.772Z,5.07
2023-04-05T22:08:43.562Z,5.03
2023-04-05T22:12:45.472Z,4.97
2023-04-05T22:16:48.105Z,4.87
2023-04-05T22:20:50.036Z,4.73
2023-04-05T22:24:51.871Z,4.50
2023-04-05T22:28:53.729Z,5.00
2023-04-05T22:32:56.018Z,4.90
2023-04-05T22:36:58.031Z,5.13
2023-04-05T22:41:00.317Z,5.37
2023-04-05T22:45:03.569Z,5.27
2023-04-05T22:49:05.770Z,5.63
2023-04-05T22:53:07.760Z,5.37
2023-04-05T22:57:11.298Z,5.73
2023-04-05T23:01:13.412Z,5.37
2023-04-05T23:05:15.302Z,6.10
2023-04-05T23:09:17.129Z,6.20
2023-04-05T23:13:18.913Z,5.90
2023-04-05T23:17:20.978Z,5.47
2023-04-05T23:21:23.245Z,5.73
2023-04-05T23:25:25.334Z,5.43
2023-04-05T23:29:27.319Z,6.30
2023-04-05T23:33:29.192Z,5.77
2023-04-05T23:37:33.938Z,5.30
2023-04-05T23:41:35.915Z,6.77
2023-04-05T23:45:37.734Z,7.27
2023-04-05T23:49:39.558Z,7.33
2023-04-05T23:53:41.372Z,7.03
2023-04-05T23:57:43.103Z,6.47
